Gh Galileo — V7ON5 — position and weather

sailwx.info

Track history (hours):
 
Tides and Currents Weather Stations Pressure Air Temp Water Temp Dewpoint Dewpoint Depression Visibility Wind Speed Wind Dir Waves Ship Positions

Gh Galileo

Last reported at 2017-Jul-29 18:59 UTC. Time now 2017-Aug-19 22:26 UTC.
Position N 01°17' E 104°01'.
Warning: this ship's position is 21 days out of date.

Length 199 m; draft 12.6 m.

Type: Cargo ship. MMSI: 538007453.

Date/timePositionNaut miles runAvg speedWind from/ knotsBaromVisibWave heightAir tempDewpointWater temp
2017-Jul-29 18:59N 01°17' E 104°01'  
2017-Jul-22 06:32N 29°43' E 123°07'013.3
2017-Jul-22 06:30N 29°44' E 123°07'713.3
2017-Jul-22 06:00N 29°50' E 123°08'713.1
2017-Jul-22 05:30N 29°57' E 123°10'1712.8
2017-Jul-22 04:11N 30°13' E 123°15'212.0
2017-Jul-22 04:00N 30°15' E 123°16'2111.3
2017-Jul-22 02:11N 30°35' E 123°20'1410.8
2017-Jul-22 00:54N 30°49' E 123°21'610.8
2017-Jul-22 00:21N 30°55' E 123°21'511.0
2017-Jul-21 23:51N 31°00' E 123°21'411.1
2017-Jul-21 23:30N 31°04' E 123°21'611.1
2017-Jul-21 22:59N 31°10' E 123°21'511.0
2017-Jul-21 22:30N 31°15' E 123°21'611.6
2017-Jul-21 21:59N 31°21' E 123°21'511.5
2017-Jul-21 21:30N 31°27' E 123°22'611.7
2017-Jul-21 21:00N 31°33' E 123°22'712.0
2017-Jul-21 20:27N 31°39' E 123°23'612.0
2017-Jul-21 20:00N 31°45' E 123°23'612.2
2017-Jul-21 19:30N 31°51' E 123°24'612.1
2017-Jul-21 18:59N 31°57' E 123°24'611.8
2017-Jul-21 18:30N 32°02' E 123°25'611.5
2017-Jul-21 18:00N 32°08' E 123°26'611.8
2017-Jul-21 17:30N 32°14' E 123°25'611.8
2017-Jul-21 17:00N 32°20' E 123°24'611.5
2017-Jul-21 16:30N 32°26' E 123°23'611.1
2017-Jul-21 15:59N 32°31' E 123°23'610.9
2017-Jul-21 15:29N 32°37' E 123°21'510.7
2017-Jul-21 15:00N 32°42' E 123°21'510.6
2017-Jul-21 14:30N 32°47' E 123°20'510.8
2017-Jul-21 14:00N 32°52' E 123°19'611.0
2017-Jul-21 13:29N 32°58' E 123°17'611.5
2017-Jul-21 12:59N 33°03' E 123°15'611.6
2017-Jul-21 12:30N 33°09' E 123°13'611.9
2017-Jul-21 12:00N 33°14' E 123°11'612.2
2017-Jul-21 11:29N 33°20' E 123°09'612.6
2017-Jul-21 11:00N 33°26' E 123°06'713.0
2017-Jul-21 10:30N 33°32' E 123°03'16512.2
2017-Jul-20 21:00N 35°01' E 120°14'1412.5
2017-Jul-20 19:51N 35°02' E 119°57'411.6
2017-Jul-20 19:30N 35°02' E 119°52'510.5
2017-Jul-20 19:00N 35°03' E 119°46'5 9.9
2017-Jul-20 18:30N 35°03' E 119°40'4 7.6
2017-Jul-20 17:59N 35°03' E 119°35'4 8.6
2017-Jul-20 17:30N 35°03' E 119°30'4 8.9
2017-Jul-20 17:00N 35°04' E 119°25'3 5.0
2017-Jul-20 16:28N 35°06' E 119°22'0 0.0
2017-Jul-20 05:28N 35°06' E 119°22'0 0.0
2017-Jul-20 04:17N 35°06' E 119°22'0 0.0
2017-Jul-20 03:23N 35°06' E 119°22'  
Track history (hours):
 
Tides and Currents Weather Stations Pressure Air Temp Water Temp Dewpoint Dewpoint Depression Visibility Wind Speed Wind Dir Waves Ship Positions

Gh Galileo

Last reported at 2017-Jul-29 18:59 UTC. Time now 2017-Aug-19 22:26 UTC.
Position N 01°17' E 104°01'.
Warning: this ship's position is 21 days out of date.

Length 199 m; draft 12.6 m.

Type: Cargo ship. MMSI: 538007453.

Date/timePositionNaut miles runAvg speedWind from/ knotsBaromVisibWave heightAir tempDewpointWater temp
2017-Jul-29 18:59N 01°17' E 104°01'  
2017-Jul-22 06:32N 29°43' E 123°07'013.3
2017-Jul-22 06:30N 29°44' E 123°07'713.3
2017-Jul-22 06:00N 29°50' E 123°08'713.1
2017-Jul-22 05:30N 29°57' E 123°10'1712.8
2017-Jul-22 04:11N 30°13' E 123°15'212.0
2017-Jul-22 04:00N 30°15' E 123°16'2111.3
2017-Jul-22 02:11N 30°35' E 123°20'1410.8
2017-Jul-22 00:54N 30°49' E 123°21'610.8
2017-Jul-22 00:21N 30°55' E 123°21'511.0
2017-Jul-21 23:51N 31°00' E 123°21'411.1
2017-Jul-21 23:30N 31°04' E 123°21'611.1
2017-Jul-21 22:59N 31°10' E 123°21'511.0
2017-Jul-21 22:30N 31°15' E 123°21'611.6
2017-Jul-21 21:59N 31°21' E 123°21'511.5
2017-Jul-21 21:30N 31°27' E 123°22'611.7
2017-Jul-21 21:00N 31°33' E 123°22'712.0
2017-Jul-21 20:27N 31°39' E 123°23'612.0
2017-Jul-21 20:00N 31°45' E 123°23'612.2
2017-Jul-21 19:30N 31°51' E 123°24'612.1
2017-Jul-21 18:59N 31°57' E 123°24'611.8
2017-Jul-21 18:30N 32°02' E 123°25'611.5
2017-Jul-21 18:00N 32°08' E 123°26'611.8
2017-Jul-21 17:30N 32°14' E 123°25'611.8
2017-Jul-21 17:00N 32°20' E 123°24'611.5
2017-Jul-21 16:30N 32°26' E 123°23'611.1
2017-Jul-21 15:59N 32°31' E 123°23'610.9
2017-Jul-21 15:29N 32°37' E 123°21'510.7
2017-Jul-21 15:00N 32°42' E 123°21'510.6
2017-Jul-21 14:30N 32°47' E 123°20'510.8
2017-Jul-21 14:00N 32°52' E 123°19'611.0
2017-Jul-21 13:29N 32°58' E 123°17'611.5
2017-Jul-21 12:59N 33°03' E 123°15'611.6
2017-Jul-21 12:30N 33°09' E 123°13'611.9
2017-Jul-21 12:00N 33°14' E 123°11'612.2
2017-Jul-21 11:29N 33°20' E 123°09'612.6
2017-Jul-21 11:00N 33°26' E 123°06'713.0
2017-Jul-21 10:30N 33°32' E 123°03'16512.2
2017-Jul-20 21:00N 35°01' E 120°14'1412.5
2017-Jul-20 19:51N 35°02' E 119°57'411.6
2017-Jul-20 19:30N 35°02' E 119°52'510.5
2017-Jul-20 19:00N 35°03' E 119°46'5 9.9
2017-Jul-20 18:30N 35°03' E 119°40'4 7.6
2017-Jul-20 17:59N 35°03' E 119°35'4 8.6
2017-Jul-20 17:30N 35°03' E 119°30'4 8.9
2017-Jul-20 17:00N 35°04' E 119°25'3 5.0
2017-Jul-20 16:28N 35°06' E 119°22'0 0.0
2017-Jul-20 05:28N 35°06' E 119°22'0 0.0
2017-Jul-20 04:17N 35°06' E 119°22'0 0.0
2017-Jul-20 03:23N 35°06' E 119°22'  

Dump ship's entire track history